Flight Track Log - Related Links

Times and Time Zones

All times are in EDT time to prevent confusion due to time zone crossing. See the FDX916 flight status page for this flight to view local times or setup timezone preferences in your user account.

Time Position Orientation Groundspeed Altitude Reporting Facility
EDT Latitude Longitude Course Direction KTS MPH feet Rate Location/Type
Fri 05:42:51 PM 35.0167 -89.9667 180° South 162 186 1,000  Level KMEM
Fri 05:43:15 PM 35.0000 -89.9667 180° South 168 193 1,800 2,067 Climbing KMEM
Fri 05:44:21 PM 34.9667 -90.0333 239° Southwest 260 299 4,100 2,700 Climbing KMEM
Fri 05:45:15 PM 34.9667 -90.1167 270° West 284 327 7,200 2,787 Climbing KMEM
Fri 05:46:56 PM 34.9531 -90.2761 264° West 313 360 11,300 2,161 Climbing Memphis Center
Fri 05:47:56 PM 34.9406 -90.3925 263° West 344 396 13,000 2,150 Climbing Memphis Center
Fri 05:48:56 PM 34.9281 -90.5192 263° West 378 435 15,600 2,450 Climbing Memphis Center
Fri 05:49:56 PM 34.9111 -90.6611 262° West 388 447 17,900 2,182 Climbing Memphis Center
Fri 05:50:57 PM 34.8961 -90.7900 262° West 393 452 20,000 1,900 Climbing Memphis Center
Fri 05:51:56 PM 34.8767 -90.9267 260° West 393 452 21,700 1,815 Climbing Memphis Center
Fri 05:52:56 PM 34.8553 -91.0631 259° West 412 474 23,600 1,800 Climbing Memphis Center
Fri 05:53:56 PM 34.8314 -91.2072 259° West 422 486 25,300 1,600 Climbing Memphis Center
Fri 05:54:56 PM 34.8094 -91.3486 259° West 427 491 26,800 1,550 Climbing Memphis Center
Fri 05:55:56 PM 34.7914 -91.4925 261° West 433 498 28,400 1,350 Climbing Memphis Center
Fri 05:56:56 PM 34.7714 -91.6389 261° West 439 505 29,500 800 Climbing Memphis Center
Fri 05:57:56 PM 34.7533 -91.7700 261° West 439 505 30,000 250 Climbing Memphis Center
Fri 05:58:56 PM 34.7328 -91.9189 261° West 444 511 30,000  Level Memphis Center
Fri 05:59:56 PM 34.7100 -92.0675 259° West 449 517 30,000  Level Memphis Center
Fri 06:00:56 PM 34.6911 -92.2161 261° West 449 517 30,000  Level Memphis Center
Fri 06:01:56 PM 34.6700 -92.3647 260° West 449 517 30,000  Level Memphis Center
Fri 06:02:56 PM 34.6467 -92.5131 259° West 449 517 30,000  Level Memphis Center
Fri 06:03:56 PM 34.6253 -92.6639 260° West 449 517 30,000 50 Level Memphis Center
Fri 06:04:56 PM 34.6036 -92.8097 260° West 449 517 30,100 600 Climbing Memphis Center
Fri 06:05:56 PM 34.5817 -92.9631 260° West 449 517 31,200 1,350 Climbing Memphis Center
Fri 06:06:56 PM 34.5578 -93.1058 259° West 449 517 32,800 1,500 Climbing Memphis Center
Fri 06:07:56 PM 34.5378 -93.2542 261° West 449 517 34,200 1,200 Climbing Memphis Center
Fri 06:08:56 PM 34.5156 -93.3969 259° West 449 517 35,200 1,100 Climbing Memphis Center
Fri 06:09:56 PM 34.4931 -93.5422 259° West 444 511 36,400 1,066 Climbing Memphis Center
Fri 06:11:28 PM 34.4644 -93.7589 261° West 446 513 37,900 636 Climbing Fort Worth Center
Fri 06:12:27 PM 34.4411 -93.8958 258° West 440 506 38,000 50 Climbing Fort Worth Center
Fri 06:13:28 PM 34.4222 -94.0350 261° West 426 490 38,000  Level Fort Worth Center
Fri 06:14:28 PM 34.3986 -94.1719 258° West 426 490 38,000  Level Fort Worth Center
Fri 06:15:28 PM 34.3750 -94.3111 258° West 421 484 38,000  Level Fort Worth Center
Fri 06:16:28 PM 34.3553 -94.4478 260° West 415 478 38,000  Level Fort Worth Center
Fri 06:17:28 PM 34.3336 -94.5867 259° West 420 483 38,000  Level Fort Worth Center
Fri 06:18:28 PM 34.3094 -94.7283 258° West 420 483 38,000  Level Fort Worth Center
Fri 06:19:28 PM 34.2872 -94.8647 259° West 425 489 38,000  Level Fort Worth Center
Fri 06:20:28 PM 34.2631 -95.0036 258° West 430 495 38,000  Level Fort Worth Center
Fri 06:21:28 PM 34.2383 -95.1450 258° West 430 495 38,000  Level Fort Worth Center
Fri 06:22:28 PM 34.2158 -95.2811 259° West 430 495 38,000  Level Fort Worth Center
Fri 06:23:27 PM 34.1950 -95.4172 260° West 425 489 38,000  Level Fort Worth Center
Fri 06:24:27 PM 34.1678 -95.5508 256° West 420 483 38,000  Level Fort Worth Center
Fri 06:25:27 PM 34.1428 -95.6869 258° West 415 478 38,000 50 Level Fort Worth Center
Fri 06:26:27 PM 34.1194 -95.8231 258° West 415 478 38,100  Climbing Fort Worth Center
Fri 06:27:27 PM 34.0961 -95.9564 258° West 415 478 38,000 -50 Descending Fort Worth Center
Fri 06:28:27 PM 34.0747 -96.1047 260° West 409 471 38,000  Level Fort Worth Center
Fri 06:29:27 PM 34.0531 -96.2428 259° West 414 476 38,000  Level Fort Worth Center
Fri 06:30:27 PM 34.0272 -96.3783 257° West 414 476 38,000  Level Fort Worth Center
Fri 06:31:28 PM 34.0031 -96.5117 258° West 414 476 38,000  Level Fort Worth Center
Fri 06:32:27 PM 33.9792 -96.6494 258° West 419 482 38,000 50 Level Fort Worth Center
Fri 06:33:27 PM 33.9547 -96.7850 258° West 414 476 38,100  Climbing Fort Worth Center
Fri 06:34:27 PM 33.9303 -96.9228 258° West 414 476 38,000 -50 Descending Fort Worth Center
Fri 06:35:27 PM 33.9058 -97.0581 258° West 414 476 38,000  Level Fort Worth Center
Fri 06:36:27 PM 33.8789 -97.1933 257° West 414 476 38,000  Level Fort Worth Center
Fri 06:37:27 PM 33.8581 -97.3108 258° West 414 476 38,000  Level Fort Worth Center
Fri 06:38:27 PM 33.8311 -97.4461 257° West 420 483 38,000  Level Fort Worth Center
Fri 06:39:27 PM 33.8081 -97.5783 258° West 414 476 38,000  Level Fort Worth Center
Fri 06:40:28 PM 33.7828 -97.7083 257° West 414 476 38,000  Level Fort Worth Center
Fri 06:41:27 PM 33.7594 -97.8408 258° West 414 476 38,000  Level Fort Worth Center
Fri 06:42:27 PM 33.7339 -97.9731 257° West 409 471 38,000  Level Fort Worth Center
Fri 06:43:27 PM 33.7061 -98.1000 255° West 404 465 38,000  Level Fort Worth Center
Fri 06:44:27 PM 33.6822 -98.2322 258° West 404 465 38,000  Level Fort Worth Center
Fri 06:45:27 PM 33.6564 -98.3642 257° West 409 471 38,000  Level Fort Worth Center
Fri 06:46:27 PM 33.6281 -98.5086 257° West 409 471 38,000  Level Fort Worth Center
Fri 06:47:27 PM 33.5997 -98.6381 255° West 415 478 38,000 50 Level Fort Worth Center
Fri 06:48:27 PM 33.5753 -98.7722 258° West 410 472 38,100  Climbing Fort Worth Center
Fri 06:49:28 PM 33.5489 -98.8939 255° West 400 460 38,000 -50 Descending Fort Worth Center
Fri 06:50:27 PM 33.5242 -99.0256 257° West 400 460 38,000  Level Fort Worth Center
Fri 06:51:27 PM 33.4953 -99.1569 255° West 400 460 38,000  Level Fort Worth Center
Fri 06:52:28 PM 33.4706 -99.2886 257° West 400 460 38,000  Level Fort Worth Center
Fri 06:53:27 PM 33.4414 -99.4225 255° West 412 474 38,000  Level Fort Worth Center
Fri 06:54:27 PM 33.4161 -99.5511 257° West 412 474 38,000  Level Fort Worth Center
Fri 06:55:27 PM 33.3889 -99.6800 256° West 412 474 38,000  Level Fort Worth Center
Fri 06:56:27 PM 33.3636 -99.8111 257° West 412 474 38,000  Level Fort Worth Center
Fri 06:57:27 PM 33.3358 -99.9397 256° West 412 474 38,000  Level Fort Worth Center
Fri 06:58:28 PM 33.3083 -100.0706 256° West 412 474 38,000  Level Fort Worth Center
Fri 06:59:27 PM 33.2803 -100.2014 256° West 412 474 38,000  Level Fort Worth Center
Fri 07:00:27 PM 33.2522 -100.3297 255° West 412 474 38,000  Level Fort Worth Center
Fri 07:01:27 PM 33.2264 -100.4581 257° West 412 474 38,000  Level Fort Worth Center
Fri 07:02:27 PM 33.1981 -100.5861 255° West 412 474 38,000  Level Fort Worth Center
Fri 07:03:27 PM 33.1697 -100.7189 256° West 412 474 38,000  Level Fort Worth Center
Fri 07:04:28 PM 33.1369 -100.8517 254° West 412 474 38,000 50 Level Fort Worth Center
Fri 07:05:27 PM 33.1103 -100.9797 256° West 412 474 38,100  Climbing Fort Worth Center
Fri 07:06:27 PM 33.0836 -101.1075 256° West 412 474 38,000 -50 Descending Fort Worth Center
Fri 07:07:28 PM 33.0547 -101.2378 255° West 406 467 38,000  Level Fort Worth Center
Fri 07:08:27 PM 33.0214 -101.3675 253° West 412 474 38,000  Level Fort Worth Center
Fri 07:09:27 PM 32.9967 -101.4878 256° West 412 474 38,000  Level Fort Worth Center
Fri 07:10:28 PM 32.9650 -101.6275 255° West 407 468 38,000  Level Fort Worth Center
Fri 07:11:27 PM 32.9422 -101.7453 257° West 412 474 38,000  Level Fort Worth Center
Fri 07:12:27 PM 32.9125 -101.8747 255° West 412 474 38,000  Level Fort Worth Center
Fri 07:13:28 PM 32.8831 -102.0019 255° West 412 474 38,000  Level Fort Worth Center
Fri 07:14:27 PM 32.8531 -102.1292 254° West 412 474 38,000  Level Fort Worth Center
Fri 07:15:27 PM 32.8275 -102.2536 256° West 407 468 38,000  Level Fort Worth Center
Fri 07:16:28 PM 32.7975 -102.3831 255° West 407 468 38,000  Level Fort Worth Center
Fri 07:17:27 PM 32.7672 -102.5122 254° West 407 468 38,000  Level Fort Worth Center
Fri 07:18:27 PM 32.7342 -102.6536 255° West 412 474 38,000  Level Fort Worth Center
Fri 07:20:44 PM 32.6658 -102.9303 254° West 402 463 38,000  Level Albuquerque Center
Fri 07:21:46 PM 32.6339 -103.0575 253° West 403 464 38,000  Level Albuquerque Center
Fri 07:22:47 PM 32.6044 -103.1853 255° West 404 465 38,000 49 Level Albuquerque Center
Fri 07:23:49 PM 32.5719 -103.3144 253° West 408 470 38,100  Climbing Albuquerque Center
Fri 07:24:51 PM 32.5350 -103.4672 254° West 405 466 38,000 -49 Descending Albuquerque Center
Fri 07:25:52 PM 32.5039 -103.5944 254° West 404 465 38,000  Level Albuquerque Center
Fri 07:26:54 PM 32.4733 -103.7208 254° West 402 463 38,000  Level Albuquerque Center
Fri 07:27:56 PM 32.4417 -103.8469 253° West 401 461 38,000  Level Albuquerque Center
Fri 07:28:57 PM 32.4100 -103.9736 254° West 402 463 38,000 -488 Level Albuquerque Center
Fri 07:29:59 PM 32.3781 -104.1133 255° West 405 466 37,000 -919 Descending Albuquerque Center
Fri 07:31:01 PM 32.3464 -104.2369 253° West 398 458 36,100 -537 Descending Albuquerque Center
Fri 07:32:02 PM 32.3139 -104.3625 253° West 399 459 35,900 -98 Descending Albuquerque Center
Fri 07:33:04 PM 32.2822 -104.4906 254° West 405 466 35,900 -829 Level Albuquerque Center
Fri 07:34:05 PM 32.2508 -104.6200 254° West 409 471 34,200 -2,244 Descending Albuquerque Center
Fri 07:35:07 PM 32.2131 -104.7725 254° West 407 468 31,300 -2,565 Descending Albuquerque Center
Fri 07:36:09 PM 32.1819 -104.8942 253° West 401 461 28,900 -2,293 Descending Albuquerque Center
Fri 07:37:10 PM 32.1503 -105.0125 252° West 393 452 26,600 -2,293 Descending Albuquerque Center
Fri 07:38:12 PM 32.1217 -105.1264 254° West 382 440 24,200 -2,244 Descending Albuquerque Center
Fri 07:39:13 PM 32.0936 -105.2364 253° West 370 426 22,000 -2,269 Descending Albuquerque Center
Fri 07:40:11 PM 32.0597 -105.3478 250° West 346 398 19,700 -2,081 Descending Albuquerque Center
Fri 07:41:17 PM 32.0378 -105.4461 255° West 341 392 17,700 -1,594 Descending Albuquerque Center
Fri 07:42:19 PM 32.0222 -105.5728 262° West 329 379 16,300 -1,512 Descending Albuquerque Center
Fri 07:43:20 PM 32.0092 -105.6767 262° West 323 372 14,600 -1,714 Descending Albuquerque Center
Fri 07:43:43 PM 32.0033 -105.7186 261° West 319 367 13,900 -1,839 Descending Albuquerque Center
Fri 07:44:22 PM 31.9981 -105.7783 264° West 317 365 12,700 -1,964 Descending Albuquerque Center
Fri 07:44:38 PM 31.9928 -105.8117 259° West 313 360 12,100 -1,548 Descending Albuquerque Center
Fri 07:45:24 PM 31.9867 -105.8778 264° West 309 356 11,100 -1,164 Descending Albuquerque Center
Fri 07:45:45 PM 31.9825 -105.9169 263° West 300 345 10,800 -1,082 Descending Albuquerque Center
Fri 07:46:25 PM 31.9756 -105.9753 262° West 284 327 10,000 -1,353 Descending Albuquerque Center
Fri 07:47:27 PM 31.9650 -106.0586 262° West 260 299 8,500 -1,403 Descending Albuquerque Center
Fri 07:48:29 PM 31.9556 -106.1328 261° West 230 265 7,100 -1,443 Descending Albuquerque Center
Fri 07:48:46 PM 31.9547 -106.1619 268° West 207 238 6,600 -1,082 Descending Albuquerque Center
Fri 07:49:30 PM 31.9467 -106.2006 256° West 215 247 6,000 -492 Descending Albuquerque Center
Fri 07:49:47 PM 31.9292 -106.2211 225° Southwest 207 238 6,100  Climbing Albuquerque Center
Fri 07:50:32 PM 31.9028 -106.2572 229° Southwest 210 242 6,000 -90 Descending Albuquerque Center
Fri 07:50:54 PM 31.8886 -106.2789 232° Southwest 211 243 6,000 -677 Level Albuquerque Center
Fri 07:51:34 PM 31.8669 -106.3061 227° Southwest 201 231 5,300 -832 Descending Albuquerque Center
Fri 07:52:35 PM 31.8439 -106.3394 231° Southwest 139 160 4,600 -683 Descending Albuquerque Center
Fri 07:53:37 PM 31.8186 -106.3750 230° Southwest 134 154 3,900 -677 Descending Albuquerque Center
Fri 07:55:00 PM 31.8072 -106.3764 270° West  Level Estimated
Fri 08:02:00 PM 31.8072 -106.3764 270° West  Level Estimated
Fri 08:03:00 PM 31.8072 -106.3764 270° West  Level Estimated
Fri 08:04:00 PM 31.8072 -106.3764 270° West  Level Estimated
Fri 08:05:00 PM 31.8072 -106.3764 270° West  Level Estimated

Login

Don't have an account? Register now (free) for customized features, flight alerts, and more!